createdAt,value
2022-11-20T00:03:12.274Z,67.06
2022-11-20T00:08:35.133Z,67.12
2022-11-20T00:13:58.593Z,67.64
2022-11-20T00:19:20.955Z,68.26
2022-11-20T00:24:43.382Z,68.33
2022-11-20T00:30:10.008Z,68.33
2022-11-20T00:35:34.415Z,67.91
2022-11-20T00:40:58.635Z,67.67
2022-11-20T00:46:23.044Z,67.63
2022-11-20T00:51:44.869Z,67.60
2022-11-20T00:57:06.873Z,67.49
2022-11-20T01:02:28.755Z,67.80
2022-11-20T01:07:50.731Z,67.81
2022-11-20T01:13:30.755Z,68.36
2022-11-20T01:18:54.577Z,68.84
2022-11-20T01:24:18.790Z,68.45
2022-11-20T01:29:40.727Z,68.39
2022-11-20T01:35:03.071Z,68.14
2022-11-20T01:40:24.986Z,68.72
2022-11-20T01:46:17.312Z,68.23
2022-11-20T01:51:52.187Z,68.22
2022-11-20T01:57:14.829Z,68.48
2022-11-20T02:02:38.263Z,68.19
2022-11-20T02:08:00.694Z,68.35
2022-11-20T02:13:41.698Z,68.48
2022-11-20T02:19:05.727Z,68.47
2022-11-20T02:24:27.511Z,68.38
2022-11-20T02:29:53.303Z,68.35
2022-11-20T02:35:20.750Z,68.98
2022-11-20T02:40:43.379Z,69.61
2022-11-20T02:46:09.331Z,69.38
2022-11-20T02:51:31.553Z,68.14
2022-11-20T02:56:53.884Z,67.35
2022-11-20T03:02:15.822Z,67.32
2022-11-20T03:07:37.979Z,66.49
2022-11-20T03:12:59.932Z,66.64
2022-11-20T03:18:21.902Z,66.63
2022-11-20T03:23:43.931Z,66.51
2022-11-20T03:29:06.563Z,66.46
2022-11-20T03:34:28.464Z,66.18
2022-11-20T03:39:50.250Z,66.05
2022-11-20T03:45:13.403Z,66.08
2022-11-20T03:50:34.985Z,65.87
2022-11-20T03:55:57.015Z,65.19
2022-11-20T04:01:21.227Z,64.63
2022-11-20T04:06:43.066Z,64.75
2022-11-20T04:12:05.521Z,66.05
2022-11-20T04:17:27.339Z,66.65
2022-11-20T04:22:49.478Z,66.46
2022-11-20T04:28:11.499Z,66.71
2022-11-20T04:33:34.581Z,66.69
2022-11-20T04:39:07.182Z,66.20
2022-11-20T04:44:29.028Z,66.15
2022-11-20T04:49:50.919Z,66.96
2022-11-20T04:55:12.686Z,66.98
2022-11-20T05:00:34.715Z,66.66
2022-11-20T05:05:56.946Z,66.03
2022-11-20T05:11:21.283Z,65.95
2022-11-20T05:16:43.355Z,66.43
2022-11-20T05:22:06.200Z,66.38
2022-11-20T05:27:28.579Z,66.52
2022-11-20T05:32:50.259Z,66.59
2022-11-20T05:38:12.446Z,66.43
2022-11-20T05:43:35.874Z,66.18
2022-11-20T05:48:59.014Z,66.35
2022-11-20T05:54:21.014Z,67.23
2022-11-20T05:59:43.932Z,67.03
2022-11-20T06:05:06.444Z,66.93
2022-11-20T06:10:28.228Z,67.58
2022-11-20T06:15:54.169Z,68.59
2022-11-20T06:21:20.871Z,68.63
2022-11-20T06:26:43.052Z,68.71
2022-11-20T06:32:05.387Z,68.45
2022-11-20T06:37:27.205Z,68.09
2022-11-20T06:42:49.171Z,67.95
2022-11-20T06:48:11.015Z,68.26
2022-11-20T06:53:33.696Z,68.75
2022-11-20T06:58:55.429Z,69.38
2022-11-20T07:04:16.969Z,69.12
2022-11-20T07:09:38.837Z,67.70
2022-11-20T07:15:00.714Z,67.18
2022-11-20T07:20:22.822Z,67.27
2022-11-20T07:25:44.895Z,68.12
2022-11-20T07:31:08.531Z,68.77
2022-11-20T07:36:30.566Z,69.33
2022-11-20T07:41:52.565Z,69.74
2022-11-20T07:47:14.239Z,70.02
2022-11-20T07:52:36.423Z,69.97
2022-11-20T07:57:58.654Z,69.64
2022-11-20T08:03:24.599Z,69.37
2022-11-20T08:08:46.930Z,69.54
2022-11-20T08:14:14.718Z,69.38
2022-11-20T08:19:38.816Z,69.04
2022-11-20T08:25:00.746Z,69.41
2022-11-20T08:30:22.574Z,69.49
2022-11-20T08:35:44.337Z,69.23
2022-11-20T08:41:24.680Z,68.71
2022-11-20T08:46:48.255Z,68.11
2022-11-20T08:52:09.760Z,67.61
2022-11-20T08:57:38.413Z,67.02
2022-11-20T09:03:02.295Z,66.85
2022-11-20T09:08:24.608Z,66.71
2022-11-20T09:13:46.408Z,66.41
2022-11-20T09:19:34.064Z,66.09
2022-11-20T09:24:50.339Z,65.37
2022-11-20T09:30:14.004Z,65.42
2022-11-20T09:35:35.903Z,65.39
2022-11-20T09:40:59.879Z,65.22
2022-11-20T09:46:48.761Z,64.92
2022-11-20T09:52:42.510Z,64.52
2022-11-20T09:58:07.845Z,63.81
2022-11-20T10:04:25.569Z,64.12
2022-11-20T10:10:05.881Z,63.81
2022-11-20T10:15:55.091Z,63.50
2022-11-20T10:22:02.277Z,63.05
2022-11-20T10:27:34.026Z,63.42
2022-11-20T10:33:17.645Z,62.70
2022-11-20T10:38:43.709Z,62.93
2022-11-20T10:44:40.442Z,63.32
2022-11-20T10:50:05.954Z,63.49
2022-11-20T10:55:46.727Z,63.32
2022-11-20T11:01:17.487Z,63.53
2022-11-20T11:06:44.104Z,63.41
2022-11-20T11:12:12.642Z,63.60
2022-11-20T11:17:34.630Z,63.43
2022-11-20T11:22:58.502Z,63.50
2022-11-20T11:28:26.992Z,63.40
2022-11-20T11:33:49.185Z,62.92
2022-11-20T11:39:16.059Z,63.18
2022-11-20T11:44:56.551Z,63.49
2022-11-20T11:50:22.443Z,63.82
2022-11-20T11:56:16.611Z,63.56
2022-11-20T12:01:50.163Z,63.57
2022-11-20T12:13:07.378Z,64.24
2022-11-20T12:18:29.790Z,64.48
2022-11-20T12:23:54.469Z,64.50
2022-11-20T12:29:25.703Z,64.41
2022-11-20T12:35:11.404Z,64.54
2022-11-20T12:40:42.776Z,64.45
2022-11-20T12:46:26.713Z,64.71
2022-11-20T12:52:22.375Z,64.65
2022-11-20T12:57:52.878Z,64.38
2022-11-20T13:03:20.279Z,64.96
2022-11-20T13:08:44.442Z,64.80
2022-11-20T13:14:36.098Z,64.84
2022-11-20T13:19:59.887Z,65.18
2022-11-20T13:25:33.153Z,65.07
2022-11-20T13:30:56.036Z,65.01
2022-11-20T13:36:24.417Z,65.02
2022-11-20T13:41:55.851Z,65.49
2022-11-20T13:47:30.123Z,65.58
2022-11-20T13:53:02.990Z,65.91
2022-11-20T13:58:34.152Z,65.93
2022-11-20T14:04:11.133Z,65.81
2022-11-20T14:09:34.369Z,65.83
2022-11-20T14:14:56.741Z,65.98
2022-11-20T14:20:24.147Z,65.74
2022-11-20T14:25:46.278Z,66.52
2022-11-20T14:31:20.250Z,66.22
2022-11-20T14:36:44.213Z,65.93
2022-11-20T14:42:17.003Z,65.95
2022-11-20T14:47:39.858Z,66.37
2022-11-20T14:53:02.318Z,66.03
2022-11-20T14:58:27.302Z,66.23
2022-11-20T15:04:19.123Z,66.62
2022-11-20T15:09:40.983Z,66.83
2022-11-20T15:15:04.422Z,66.26
2022-11-20T15:20:32.305Z,65.83
2022-11-20T15:25:53.870Z,65.88
2022-11-20T15:31:18.539Z,66.01
2022-11-20T15:36:41.108Z,66.25
2022-11-20T15:42:02.536Z,66.47
2022-11-20T15:47:29.398Z,66.56
2022-11-20T15:52:51.681Z,66.62
2022-11-20T15:58:14.451Z,66.82
2022-11-20T16:03:36.326Z,66.54
2022-11-20T16:08:58.206Z,66.97
2022-11-20T16:14:38.608Z,66.85
2022-11-20T16:20:00.547Z,67.14
2022-11-20T16:25:22.454Z,66.86
2022-11-20T16:30:44.685Z,67.06
2022-11-20T16:36:14.841Z,66.78
2022-11-20T16:41:37.582Z,66.85
2022-11-20T16:46:59.202Z,66.67
2022-11-20T16:52:20.830Z,66.91
2022-11-20T16:57:42.821Z,66.95
2022-11-20T17:03:06.213Z,67.09
2022-11-20T17:08:30.633Z,67.41
2022-11-20T17:13:52.843Z,67.26
2022-11-20T17:19:15.795Z,67.65
2022-11-20T17:24:37.450Z,67.61
2022-11-20T17:29:59.356Z,68.04
2022-11-20T17:35:21.291Z,68.12
2022-11-20T17:40:43.212Z,68.34
2022-11-20T17:46:13.030Z,68.54
2022-11-20T17:51:35.419Z,68.81
2022-11-20T17:57:16.192Z,68.79
2022-11-20T18:02:38.127Z,69.46
2022-11-20T18:08:00.089Z,69.73
2022-11-20T18:13:45.008Z,69.92
2022-11-20T18:19:12.063Z,69.97
2022-11-20T18:24:34.415Z,70.55
2022-11-20T18:29:58.982Z,70.65
2022-11-20T18:35:20.857Z,70.10
2022-11-20T18:40:42.619Z,70.21
2022-11-20T18:46:04.970Z,70.63
2022-11-20T18:51:26.715Z,70.60
2022-11-20T18:56:48.834Z,70.58
2022-11-20T19:02:16.279Z,71.01
2022-11-20T19:07:38.163Z,70.66
2022-11-20T19:13:00.537Z,70.35
2022-11-20T19:18:22.377Z,70.46
2022-11-20T19:23:48.226Z,70.59
2022-11-20T19:29:15.618Z,70.68
2022-11-20T19:34:37.687Z,71.53
2022-11-20T19:39:59.854Z,71.29
2022-11-20T19:45:21.950Z,71.08
2022-11-20T19:50:43.830Z,71.10
2022-11-20T19:56:06.409Z,71.24
2022-11-20T20:01:30.904Z,71.23
2022-11-20T20:06:52.595Z,71.43
2022-11-20T20:12:14.708Z,71.04
2022-11-20T20:17:36.788Z,71.06
2022-11-20T20:22:58.868Z,71.27
2022-11-20T20:28:20.494Z,71.66
2022-11-20T20:33:43.496Z,71.98
2022-11-20T20:39:05.060Z,71.85
2022-11-20T20:44:45.248Z,71.69
2022-11-20T20:50:10.855Z,72.00
2022-11-20T20:55:34.224Z,71.80
2022-11-20T21:01:02.318Z,71.90
2022-11-20T21:06:24.633Z,71.65
2022-11-20T21:11:46.376Z,71.89
2022-11-20T21:17:13.698Z,71.95
2022-11-20T21:22:36.923Z,72.09
2022-11-20T21:27:58.475Z,72.06
2022-11-20T21:33:20.378Z,71.76
2022-11-20T21:38:42.808Z,71.39
2022-11-20T21:49:48.050Z,70.92
2022-11-20T21:55:10.080Z,70.97
2022-11-20T22:00:31.798Z,71.19
2022-11-20T22:05:57.545Z,71.02
2022-11-20T22:11:21.398Z,70.80
2022-11-20T22:16:43.407Z,70.46
2022-11-20T22:22:05.435Z,70.22
2022-11-20T22:27:26.935Z,69.96
2022-11-20T22:32:48.896Z,70.26
2022-11-20T22:38:10.923Z,70.24
2022-11-20T22:43:33.423Z,69.95
2022-11-20T22:49:01.893Z,70.08
2022-11-20T22:54:24.189Z,70.12
2022-11-20T22:59:46.221Z,70.20
2022-11-20T23:05:08.397Z,69.96
2022-11-20T23:10:30.157Z,69.73
2022-11-20T23:15:52.142Z,69.64
2022-11-20T23:21:16.983Z,69.42
2022-11-20T23:26:41.283Z,69.38
2022-11-20T23:32:03.186Z,69.31
2022-11-20T23:37:25.219Z,70.23
2022-11-20T23:43:06.089Z,71.01
2022-11-20T23:48:32.535Z,70.86
2022-11-20T23:53:54.263Z,70.79
2022-11-20T23:59:15.847Z,70.23
